sensor_id;sensor_type;location;lat;lon;timestamp;P1;durP1;ratioP1;P2;durP2;ratioP2
7497;SDS011;3790;48.806;9.140;2023-02-23T00:02:16;8.93;;;6.07;;
7497;SDS011;3790;48.806;9.140;2023-02-23T00:07:16;6.30;;;5.37;;
7497;SDS011;3790;48.806;9.140;2023-02-23T00:12:19;10.27;;;5.93;;
7497;SDS011;3790;48.806;9.140;2023-02-23T00:17:19;9.17;;;7.00;;
7497;SDS011;3790;48.806;9.140;2023-02-23T00:22:23;7.37;;;6.40;;
7497;SDS011;3790;48.806;9.140;2023-02-23T00:27:24;7.87;;;6.73;;
7497;SDS011;3790;48.806;9.140;2023-02-23T00:32:25;9.87;;;7.50;;
7497;SDS011;3790;48.806;9.140;2023-02-23T00:37:26;12.23;;;8.07;;
7497;SDS011;3790;48.806;9.140;2023-02-23T00:42:26;13.27;;;9.23;;
7497;SDS011;3790;48.806;9.140;2023-02-23T00:47:31;9.50;;;8.47;;
7497;SDS011;3790;48.806;9.140;2023-02-23T00:52:31;13.70;;;9.47;;
7497;SDS011;3790;48.806;9.140;2023-02-23T00:57:32;9.10;;;8.13;;
7497;SDS011;3790;48.806;9.140;2023-02-23T01:02:32;10.30;;;8.57;;
7497;SDS011;3790;48.806;9.140;2023-02-23T01:07:33;11.00;;;8.30;;
7497;SDS011;3790;48.806;9.140;2023-02-23T01:12:33;17.00;;;11.37;;
7497;SDS011;3790;48.806;9.140;2023-02-23T01:17:34;11.67;;;9.73;;
7497;SDS011;3790;48.806;9.140;2023-02-23T01:22:35;19.60;;;9.80;;
7497;SDS011;3790;48.806;9.140;2023-02-23T01:27:35;13.40;;;10.13;;
7497;SDS011;3790;48.806;9.140;2023-02-23T01:32:36;11.13;;;9.87;;
7497;SDS011;3790;48.806;9.140;2023-02-23T01:37:38;12.87;;;10.30;;
7497;SDS011;3790;48.806;9.140;2023-02-23T01:42:42;10.50;;;8.67;;
7497;SDS011;3790;48.806;9.140;2023-02-23T01:47:43;10.30;;;9.03;;
7497;SDS011;3790;48.806;9.140;2023-02-23T01:52:46;9.93;;;8.77;;
7497;SDS011;3790;48.806;9.140;2023-02-23T01:57:51;10.60;;;7.73;;
7497;SDS011;3790;48.806;9.140;2023-02-23T02:02:54;11.50;;;8.50;;
7497;SDS011;3790;48.806;9.140;2023-02-23T02:07:55;10.93;;;9.07;;
7497;SDS011;3790;48.806;9.140;2023-02-23T02:12:58;13.17;;;9.33;;
7497;SDS011;3790;48.806;9.140;2023-02-23T02:39:53;13.47;;;9.57;;
7497;SDS011;3790;48.806;9.140;2023-02-23T02:50:27;11.00;;;9.90;;
7497;SDS011;3790;48.806;9.140;2023-02-23T02:55:41;8.93;;;7.93;;
7497;SDS011;3790;48.806;9.140;2023-02-23T03:00:47;10.93;;;8.33;;
7497;SDS011;3790;48.806;9.140;2023-02-23T03:06:07;9.97;;;8.87;;
7497;SDS011;3790;48.806;9.140;2023-02-23T03:11:30;9.47;;;7.57;;
7497;SDS011;3790;48.806;9.140;2023-02-23T03:22:52;9.57;;;8.53;;
7497;SDS011;3790;48.806;9.140;2023-02-23T03:28:40;11.37;;;8.07;;
7497;SDS011;3790;48.806;9.140;2023-02-23T03:34:21;9.83;;;8.83;;
7497;SDS011;3790;48.806;9.140;2023-02-23T03:39:59;11.47;;;10.20;;
7497;SDS011;3790;48.806;9.140;2023-02-23T03:45:26;13.60;;;9.20;;
7497;SDS011;3790;48.806;9.140;2023-02-23T03:50:51;12.17;;;10.30;;
7497;SDS011;3790;48.806;9.140;2023-02-23T03:56:12;12.43;;;10.47;;
7497;SDS011;3790;48.806;9.140;2023-02-23T04:01:36;14.93;;;11.00;;
7497;SDS011;3790;48.806;9.140;2023-02-23T04:06:57;12.40;;;10.23;;
7497;SDS011;3790;48.806;9.140;2023-02-23T04:12:20;11.53;;;10.20;;
7497;SDS011;3790;48.806;9.140;2023-02-23T04:17:51;13.20;;;9.87;;
7497;SDS011;3790;48.806;9.140;2023-02-23T04:22:52;11.60;;;10.40;;
7497;SDS011;3790;48.806;9.140;2023-02-23T04:27:53;11.63;;;9.87;;
7497;SDS011;3790;48.806;9.140;2023-02-23T04:32:54;14.87;;;9.90;;
7497;SDS011;3790;48.806;9.140;2023-02-23T04:37:55;12.30;;;10.53;;
7497;SDS011;3790;48.806;9.140;2023-02-23T04:42:56;12.47;;;10.73;;
7497;SDS011;3790;48.806;9.140;2023-02-23T04:47:59;21.20;;;11.83;;
7497;SDS011;3790;48.806;9.140;2023-02-23T04:53:00;14.33;;;11.43;;
7497;SDS011;3790;48.806;9.140;2023-02-23T04:58:00;13.20;;;12.03;;
7497;SDS011;3790;48.806;9.140;2023-02-23T05:03:01;13.70;;;12.27;;
7497;SDS011;3790;48.806;9.140;2023-02-23T05:08:02;26.30;;;13.90;;
7497;SDS011;3790;48.806;9.140;2023-02-23T05:13:03;16.07;;;12.00;;
7497;SDS011;3790;48.806;9.140;2023-02-23T05:18:03;14.23;;;12.83;;
7497;SDS011;3790;48.806;9.140;2023-02-23T05:23:04;17.90;;;13.63;;
7497;SDS011;3790;48.806;9.140;2023-02-23T05:28:04;15.27;;;13.10;;
7497;SDS011;3790;48.806;9.140;2023-02-23T05:33:05;16.30;;;12.73;;
7497;SDS011;3790;48.806;9.140;2023-02-23T05:38:06;13.57;;;11.93;;
7497;SDS011;3790;48.806;9.140;2023-02-23T05:43:06;14.33;;;11.83;;
7497;SDS011;3790;48.806;9.140;2023-02-23T05:48:07;14.07;;;11.20;;
7497;SDS011;3790;48.806;9.140;2023-02-23T05:53:08;11.93;;;10.60;;
7497;SDS011;3790;48.806;9.140;2023-02-23T05:58:09;13.43;;;11.07;;
7497;SDS011;3790;48.806;9.140;2023-02-23T06:03:10;18.83;;;10.50;;
7497;SDS011;3790;48.806;9.140;2023-02-23T06:08:10;14.73;;;11.20;;
7497;SDS011;3790;48.806;9.140;2023-02-23T06:13:11;12.30;;;10.87;;
7497;SDS011;3790;48.806;9.140;2023-02-23T06:18:13;10.27;;;8.83;;
7497;SDS011;3790;48.806;9.140;2023-02-23T06:23:14;9.67;;;8.67;;
7497;SDS011;3790;48.806;9.140;2023-02-23T06:28:14;11.93;;;10.23;;
7497;SDS011;3790;48.806;9.140;2023-02-23T06:33:15;10.80;;;9.77;;
7497;SDS011;3790;48.806;9.140;2023-02-23T06:38:15;9.30;;;8.37;;
7497;SDS011;3790;48.806;9.140;2023-02-23T06:43:16;10.03;;;8.53;;
7497;SDS011;3790;48.806;9.140;2023-02-23T06:48:16;8.63;;;7.23;;
7497;SDS011;3790;48.806;9.140;2023-02-23T06:53:17;8.53;;;7.33;;
7497;SDS011;3790;48.806;9.140;2023-02-23T06:58:19;9.53;;;7.87;;
7497;SDS011;3790;48.806;9.140;2023-02-23T07:03:19;11.33;;;7.20;;
7497;SDS011;3790;48.806;9.140;2023-02-23T07:08:20;7.47;;;6.67;;
7497;SDS011;3790;48.806;9.140;2023-02-23T07:13:20;8.37;;;6.37;;
7497;SDS011;3790;48.806;9.140;2023-02-23T07:18:21;8.43;;;7.00;;
7497;SDS011;3790;48.806;9.140;2023-02-23T07:23:21;11.67;;;8.60;;
7497;SDS011;3790;48.806;9.140;2023-02-23T07:28:22;10.87;;;9.87;;
7497;SDS011;3790;48.806;9.140;2023-02-23T07:33:24;13.50;;;12.03;;
7497;SDS011;3790;48.806;9.140;2023-02-23T07:38:25;13.97;;;10.07;;
7497;SDS011;3790;48.806;9.140;2023-02-23T07:43:25;12.40;;;9.47;;
7497;SDS011;3790;48.806;9.140;2023-02-23T07:48:26;10.07;;;8.30;;
7497;SDS011;3790;48.806;9.140;2023-02-23T07:53:27;9.03;;;7.80;;
7497;SDS011;3790;48.806;9.140;2023-02-23T07:58:27;9.80;;;7.53;;
7497;SDS011;3790;48.806;9.140;2023-02-23T08:03:29;10.60;;;8.50;;
7497;SDS011;3790;48.806;9.140;2023-02-23T08:08:30;12.23;;;8.30;;
7497;SDS011;3790;48.806;9.140;2023-02-23T08:13:31;10.20;;;7.00;;
7497;SDS011;3790;48.806;9.140;2023-02-23T08:18:32;6.93;;;5.87;;
7497;SDS011;3790;48.806;9.140;2023-02-23T08:23:33;7.60;;;5.13;;
7497;SDS011;3790;48.806;9.140;2023-02-23T08:28:34;5.77;;;5.13;;
7497;SDS011;3790;48.806;9.140;2023-02-23T08:33:35;8.10;;;5.77;;
7497;SDS011;3790;48.806;9.140;2023-02-23T08:38:36;7.93;;;5.37;;
7497;SDS011;3790;48.806;9.140;2023-02-23T08:43:37;6.97;;;5.30;;
7497;SDS011;3790;48.806;9.140;2023-02-23T08:48:38;9.90;;;4.37;;
7497;SDS011;3790;48.806;9.140;2023-02-23T08:53:39;9.33;;;5.93;;
7497;SDS011;3790;48.806;9.140;2023-02-23T08:58:40;7.33;;;4.63;;
7497;SDS011;3790;48.806;9.140;2023-02-23T09:03:41;5.97;;;4.60;;
7497;SDS011;3790;48.806;9.140;2023-02-23T09:08:42;6.55;;;5.00;;
7497;SDS011;3790;48.806;9.140;2023-02-23T09:13:42;5.88;;;4.18;;
7497;SDS011;3790;48.806;9.140;2023-02-23T09:18:43;12.90;;;4.88;;
7497;SDS011;3790;48.806;9.140;2023-02-23T09:23:44;9.73;;;6.25;;
7497;SDS011;3790;48.806;9.140;2023-02-23T09:28:47;5.55;;;4.30;;
7497;SDS011;3790;48.806;9.140;2023-02-23T09:33:48;7.25;;;3.72;;
7497;SDS011;3790;48.806;9.140;2023-02-23T09:38:50;6.75;;;4.32;;
7497;SDS011;3790;48.806;9.140;2023-02-23T09:49:33;13.45;;;9.98;;
7497;SDS011;3790;48.806;9.140;2023-02-23T09:54:37;6.28;;;3.60;;
7497;SDS011;3790;48.806;9.140;2023-02-23T09:59:38;6.75;;;3.90;;
7497;SDS011;3790;48.806;9.140;2023-02-23T10:05:12;4.40;;;3.22;;
7497;SDS011;3790;48.806;9.140;2023-02-23T10:15:31;5.13;;;2.83;;
7497;SDS011;3790;48.806;9.140;2023-02-23T10:25:46;9.02;;;6.00;;
7497;SDS011;3790;48.806;9.140;2023-02-23T10:30:48;12.13;;;4.50;;
7497;SDS011;3790;48.806;9.140;2023-02-23T10:35:54;8.40;;;6.00;;
7497;SDS011;3790;48.806;9.140;2023-02-23T10:40:59;8.43;;;4.47;;
7497;SDS011;3790;48.806;9.140;2023-02-23T10:46:00;6.45;;;4.68;;
7497;SDS011;3790;48.806;9.140;2023-02-23T10:51:01;6.20;;;4.20;;
7497;SDS011;3790;48.806;9.140;2023-02-23T10:56:04;6.32;;;3.90;;
7497;SDS011;3790;48.806;9.140;2023-02-23T11:01:26;9.82;;;4.80;;
7497;SDS011;3790;48.806;9.140;2023-02-23T11:06:35;7.82;;;4.90;;
7497;SDS011;3790;48.806;9.140;2023-02-23T11:11:45;7.18;;;4.00;;
7497;SDS011;3790;48.806;9.140;2023-02-23T11:17:22;4.65;;;3.38;;
7497;SDS011;3790;48.806;9.140;2023-02-23T11:22:26;8.13;;;3.08;;
7497;SDS011;3790;48.806;9.140;2023-02-23T11:27:32;5.57;;;2.88;;
7497;SDS011;3790;48.806;9.140;2023-02-23T11:32:33;5.72;;;3.85;;
7497;SDS011;3790;48.806;9.140;2023-02-23T11:37:37;5.35;;;3.10;;
7497;SDS011;3790;48.806;9.140;2023-02-23T11:42:38;4.95;;;3.10;;
7497;SDS011;3790;48.806;9.140;2023-02-23T11:47:56;10.60;;;2.90;;
7497;SDS011;3790;48.806;9.140;2023-02-23T11:53:03;5.97;;;2.78;;
7497;SDS011;3790;48.806;9.140;2023-02-23T12:03:46;4.90;;;2.63;;
7497;SDS011;3790;48.806;9.140;2023-02-23T12:09:03;4.88;;;2.60;;
7497;SDS011;3790;48.806;9.140;2023-02-23T12:19:33;8.23;;;2.70;;
7497;SDS011;3790;48.806;9.140;2023-02-23T12:24:41;3.92;;;2.20;;
7497;SDS011;3790;48.806;9.140;2023-02-23T12:29:54;5.60;;;1.98;;
7497;SDS011;3790;48.806;9.140;2023-02-23T12:35:01;4.43;;;2.70;;
7497;SDS011;3790;48.806;9.140;2023-02-23T12:40:17;7.93;;;2.60;;
7497;SDS011;3790;48.806;9.140;2023-02-23T12:50:29;6.65;;;3.40;;
7497;SDS011;3790;48.806;9.140;2023-02-23T12:55:49;5.85;;;3.78;;
7497;SDS011;3790;48.806;9.140;2023-02-23T13:01:07;5.35;;;3.20;;
7497;SDS011;3790;48.806;9.140;2023-02-23T13:16:29;5.18;;;2.85;;
7497;SDS011;3790;48.806;9.140;2023-02-23T13:21:43;4.90;;;3.00;;
7497;SDS011;3790;48.806;9.140;2023-02-23T13:26:52;4.80;;;2.92;;
7497;SDS011;3790;48.806;9.140;2023-02-23T13:31:59;6.65;;;2.60;;
7497;SDS011;3790;48.806;9.140;2023-02-23T13:37:03;4.90;;;2.33;;
7497;SDS011;3790;48.806;9.140;2023-02-23T13:48:39;3.50;;;2.22;;
7497;SDS011;3790;48.806;9.140;2023-02-23T13:53:31;3.97;;;2.10;;
7497;SDS011;3790;48.806;9.140;2023-02-23T13:58:36;6.75;;;2.05;;
7497;SDS011;3790;48.806;9.140;2023-02-23T14:03:41;3.45;;;2.00;;
7497;SDS011;3790;48.806;9.140;2023-02-23T14:08:50;5.05;;;2.50;;
7497;SDS011;3790;48.806;9.140;2023-02-23T14:13:59;5.20;;;2.20;;
7497;SDS011;3790;48.806;9.140;2023-02-23T14:19:06;4.40;;;2.15;;
7497;SDS011;3790;48.806;9.140;2023-02-23T14:29:22;3.53;;;1.70;;
7497;SDS011;3790;48.806;9.140;2023-02-23T14:40:00;5.53;;;1.85;;
7497;SDS011;3790;48.806;9.140;2023-02-23T14:45:11;4.82;;;2.17;;
7497;SDS011;3790;48.806;9.140;2023-02-23T14:50:31;2.75;;;1.58;;
7497;SDS011;3790;48.806;9.140;2023-02-23T14:55:34;3.65;;;2.10;;
7497;SDS011;3790;48.806;9.140;2023-02-23T15:00:40;4.20;;;2.08;;
7497;SDS011;3790;48.806;9.140;2023-02-23T15:05:42;5.70;;;2.75;;
7497;SDS011;3790;48.806;9.140;2023-02-23T15:10:50;4.47;;;2.50;;
7497;SDS011;3790;48.806;9.140;2023-02-23T15:16:04;6.78;;;2.75;;
7497;SDS011;3790;48.806;9.140;2023-02-23T15:21:17;6.82;;;2.97;;
7497;SDS011;3790;48.806;9.140;2023-02-23T15:26:31;4.80;;;3.20;;
7497;SDS011;3790;48.806;9.140;2023-02-23T15:31:34;6.10;;;3.58;;
7497;SDS011;3790;48.806;9.140;2023-02-23T15:36:35;5.15;;;3.13;;
7497;SDS011;3790;48.806;9.140;2023-02-23T15:41:38;11.35;;;3.20;;
7497;SDS011;3790;48.806;9.140;2023-02-23T15:46:41;6.65;;;3.28;;
7497;SDS011;3790;48.806;9.140;2023-02-23T15:51:46;6.50;;;3.03;;
7497;SDS011;3790;48.806;9.140;2023-02-23T15:56:55;5.90;;;3.47;;
7497;SDS011;3790;48.806;9.140;2023-02-23T16:02:02;5.72;;;3.13;;
7497;SDS011;3790;48.806;9.140;2023-02-23T16:07:14;7.23;;;3.23;;
7497;SDS011;3790;48.806;9.140;2023-02-23T16:12:22;6.63;;;2.42;;
7497;SDS011;3790;48.806;9.140;2023-02-23T16:17:39;4.90;;;2.70;;
7497;SDS011;3790;48.806;9.140;2023-02-23T16:22:43;7.23;;;3.43;;
7497;SDS011;3790;48.806;9.140;2023-02-23T16:27:45;4.80;;;2.80;;
7497;SDS011;3790;48.806;9.140;2023-02-23T16:33:02;4.77;;;2.77;;
7497;SDS011;3790;48.806;9.140;2023-02-23T16:43:25;5.07;;;3.43;;
7497;SDS011;3790;48.806;9.140;2023-02-23T16:48:30;8.10;;;2.93;;
7497;SDS011;3790;48.806;9.140;2023-02-23T16:53:30;4.20;;;2.80;;
7497;SDS011;3790;48.806;9.140;2023-02-23T16:58:31;6.10;;;2.63;;
7497;SDS011;3790;48.806;9.140;2023-02-23T17:03:34;4.73;;;3.13;;
7497;SDS011;3790;48.806;9.140;2023-02-23T17:08:35;7.47;;;3.30;;
7497;SDS011;3790;48.806;9.140;2023-02-23T17:13:35;6.93;;;3.37;;
7497;SDS011;3790;48.806;9.140;2023-02-23T17:18:37;5.90;;;3.33;;
7497;SDS011;3790;48.806;9.140;2023-02-23T17:23:38;5.37;;;3.07;;
7497;SDS011;3790;48.806;9.140;2023-02-23T17:28:50;7.67;;;4.03;;
7497;SDS011;3790;48.806;9.140;2023-02-23T17:33:51;4.80;;;3.27;;
7497;SDS011;3790;48.806;9.140;2023-02-23T17:38:52;8.33;;;3.57;;
7497;SDS011;3790;48.806;9.140;2023-02-23T17:43:57;4.73;;;3.47;;
7497;SDS011;3790;48.806;9.140;2023-02-23T17:48:59;12.73;;;4.07;;
7497;SDS011;3790;48.806;9.140;2023-02-23T17:54:00;6.10;;;3.73;;
7497;SDS011;3790;48.806;9.140;2023-02-23T17:59:00;6.73;;;3.87;;
7497;SDS011;3790;48.806;9.140;2023-02-23T18:04:02;7.73;;;4.50;;
7497;SDS011;3790;48.806;9.140;2023-02-23T18:09:03;7.30;;;4.80;;
7497;SDS011;3790;48.806;9.140;2023-02-23T18:14:05;6.73;;;4.80;;
7497;SDS011;3790;48.806;9.140;2023-02-23T18:19:05;8.43;;;5.07;;
7497;SDS011;3790;48.806;9.140;2023-02-23T18:24:06;8.53;;;4.90;;
7497;SDS011;3790;48.806;9.140;2023-02-23T18:29:06;5.77;;;4.97;;
7497;SDS011;3790;48.806;9.140;2023-02-23T18:34:08;9.53;;;6.07;;
7497;SDS011;3790;48.806;9.140;2023-02-23T18:39:11;7.70;;;5.53;;
7497;SDS011;3790;48.806;9.140;2023-02-23T18:44:13;6.77;;;5.50;;
7497;SDS011;3790;48.806;9.140;2023-02-23T18:49:16;13.90;;;6.00;;
7497;SDS011;3790;48.806;9.140;2023-02-23T18:54:19;8.47;;;6.70;;
7497;SDS011;3790;48.806;9.140;2023-02-23T18:59:21;10.47;;;6.00;;
7497;SDS011;3790;48.806;9.140;2023-02-23T19:04:22;8.20;;;6.33;;
7497;SDS011;3790;48.806;9.140;2023-02-23T19:09:22;8.47;;;5.93;;
7497;SDS011;3790;48.806;9.140;2023-02-23T19:14:23;8.10;;;6.20;;
7497;SDS011;3790;48.806;9.140;2023-02-23T19:19:23;8.40;;;5.93;;
7497;SDS011;3790;48.806;9.140;2023-02-23T19:24:24;11.37;;;5.67;;
7497;SDS011;3790;48.806;9.140;2023-02-23T19:29:24;9.57;;;5.90;;
7497;SDS011;3790;48.806;9.140;2023-02-23T19:34:25;15.70;;;6.97;;
7497;SDS011;3790;48.806;9.140;2023-02-23T19:39:25;8.37;;;5.43;;
7497;SDS011;3790;48.806;9.140;2023-02-23T19:44:28;8.57;;;5.83;;
7497;SDS011;3790;48.806;9.140;2023-02-23T19:49:29;7.00;;;6.17;;
7497;SDS011;3790;48.806;9.140;2023-02-23T19:54:29;10.80;;;6.17;;
7497;SDS011;3790;48.806;9.140;2023-02-23T19:59:32;7.10;;;6.10;;
7497;SDS011;3790;48.806;9.140;2023-02-23T20:04:33;7.87;;;6.37;;
7497;SDS011;3790;48.806;9.140;2023-02-23T20:09:34;8.50;;;6.53;;
7497;SDS011;3790;48.806;9.140;2023-02-23T20:14:35;7.17;;;5.80;;
7497;SDS011;3790;48.806;9.140;2023-02-23T20:19:35;9.63;;;7.70;;
7497;SDS011;3790;48.806;9.140;2023-02-23T20:24:36;9.57;;;6.57;;
7497;SDS011;3790;48.806;9.140;2023-02-23T20:29:36;10.63;;;7.33;;
7497;SDS011;3790;48.806;9.140;2023-02-23T20:34:37;9.50;;;6.53;;
7497;SDS011;3790;48.806;9.140;2023-02-23T20:39:38;15.40;;;7.47;;
7497;SDS011;3790;48.806;9.140;2023-02-23T20:44:38;10.27;;;6.57;;
7497;SDS011;3790;48.806;9.140;2023-02-23T20:49:39;12.47;;;6.67;;
7497;SDS011;3790;48.806;9.140;2023-02-23T20:54:40;13.53;;;7.87;;
7497;SDS011;3790;48.806;9.140;2023-02-23T20:59:41;10.53;;;8.30;;
7497;SDS011;3790;48.806;9.140;2023-02-23T21:04:43;11.93;;;7.63;;
7497;SDS011;3790;48.806;9.140;2023-02-23T21:09:43;12.60;;;10.40;;
7497;SDS011;3790;48.806;9.140;2023-02-23T21:14:45;11.97;;;10.40;;
7497;SDS011;3790;48.806;9.140;2023-02-23T21:19:47;14.20;;;10.63;;
7497;SDS011;3790;48.806;9.140;2023-02-23T21:24:47;12.93;;;10.67;;
7497;SDS011;3790;48.806;9.140;2023-02-23T21:29:48;26.67;;;12.53;;
7497;SDS011;3790;48.806;9.140;2023-02-23T21:34:48;17.17;;;10.80;;
7497;SDS011;3790;48.806;9.140;2023-02-23T21:39:49;16.53;;;13.07;;
7497;SDS011;3790;48.806;9.140;2023-02-23T21:44:49;17.60;;;13.27;;
7497;SDS011;3790;48.806;9.140;2023-02-23T21:49:50;14.23;;;12.77;;
7497;SDS011;3790;48.806;9.140;2023-02-23T21:54:53;14.63;;;12.63;;
7497;SDS011;3790;48.806;9.140;2023-02-23T21:59:53;17.47;;;12.60;;
7497;SDS011;3790;48.806;9.140;2023-02-23T22:04:54;14.50;;;12.07;;
7497;SDS011;3790;48.806;9.140;2023-02-23T22:09:55;13.40;;;11.70;;
7497;SDS011;3790;48.806;9.140;2023-02-23T22:14:56;16.87;;;14.13;;
7497;SDS011;3790;48.806;9.140;2023-02-23T22:19:56;18.80;;;13.90;;
7497;SDS011;3790;48.806;9.140;2023-02-23T22:24:57;20.17;;;14.50;;
7497;SDS011;3790;48.806;9.140;2023-02-23T22:29:57;14.27;;;12.80;;
7497;SDS011;3790;48.806;9.140;2023-02-23T22:35:00;20.13;;;14.53;;
7497;SDS011;3790;48.806;9.140;2023-02-23T22:40:02;15.43;;;13.53;;
7497;SDS011;3790;48.806;9.140;2023-02-23T22:45:20;17.60;;;14.53;;
7497;SDS011;3790;48.806;9.140;2023-02-23T22:50:21;17.70;;;13.33;;
7497;SDS011;3790;48.806;9.140;2023-02-23T22:55:21;15.87;;;14.27;;
7497;SDS011;3790;48.806;9.140;2023-02-23T23:00:22;16.70;;;13.20;;
7497;SDS011;3790;48.806;9.140;2023-02-23T23:05:23;16.97;;;15.20;;
7497;SDS011;3790;48.806;9.140;2023-02-23T23:10:24;16.97;;;12.27;;
7497;SDS011;3790;48.806;9.140;2023-02-23T23:15:25;12.50;;;10.93;;
7497;SDS011;3790;48.806;9.140;2023-02-23T23:20:25;22.23;;;16.60;;
7497;SDS011;3790;48.806;9.140;2023-02-23T23:25:26;20.03;;;15.50;;
7497;SDS011;3790;48.806;9.140;2023-02-23T23:30:28;20.43;;;15.73;;
7497;SDS011;3790;48.806;9.140;2023-02-23T23:35:29;19.00;;;14.03;;
7497;SDS011;3790;48.806;9.140;2023-02-23T23:45:39;14.83;;;13.33;;
7497;SDS011;3790;48.806;9.140;2023-02-23T23:50:41;20.37;;;14.87;;
7497;SDS011;3790;48.806;9.140;2023-02-23T23:55:42;18.87;;;15.10;;
